sensor_id;sensor_type;location;lat;lon;timestamp;pressure;altitude;pressure_sealevel;temperature;humidity
69524;BME280;56723;42.694;23.286;2022-11-20T00:00:17;94295.91;;;18.22;50.38
69524;BME280;56723;42.694;23.286;2022-11-20T00:02:45;94338.19;;;18.25;50.86
69524;BME280;56723;42.694;23.286;2022-11-20T00:05:12;94290.88;;;18.32;50.09
69524;BME280;56723;42.694;23.286;2022-11-20T00:07:39;94316.66;;;18.35;50.20
69524;BME280;56723;42.694;23.286;2022-11-20T00:10:06;94329.19;;;18.33;50.30
69524;BME280;56723;42.694;23.286;2022-11-20T00:12:33;94309.47;;;18.30;50.94
69524;BME280;56723;42.694;23.286;2022-11-20T00:15:00;94314.72;;;18.30;50.39
69524;BME280;56723;42.694;23.286;2022-11-20T00:17:27;94264.31;;;18.28;50.11
69524;BME280;56723;42.694;23.286;2022-11-20T00:19:54;94282.56;;;18.35;49.63
69524;BME280;56723;42.694;23.286;2022-11-20T00:22:21;94279.72;;;18.37;50.06
69524;BME280;56723;42.694;23.286;2022-11-20T00:24:48;94307.41;;;18.32;49.62
69524;BME280;56723;42.694;23.286;2022-11-20T00:27:14;94325.22;;;18.30;49.64
69524;BME280;56723;42.694;23.286;2022-11-20T00:29:41;94312.63;;;18.44;48.22
69524;BME280;56723;42.694;23.286;2022-11-20T00:32:08;94261.78;;;18.45;48.28
69524;BME280;56723;42.694;23.286;2022-11-20T00:34:35;94290.41;;;18.47;48.77
69524;BME280;56723;42.694;23.286;2022-11-20T00:37:02;94282.66;;;18.40;48.82
69524;BME280;56723;42.694;23.286;2022-11-20T00:39:29;94319.06;;;18.37;49.36
69524;BME280;56723;42.694;23.286;2022-11-20T00:41:55;94283.00;;;18.44;48.44
69524;BME280;56723;42.694;23.286;2022-11-20T00:44:22;94313.31;;;18.40;49.55
69524;BME280;56723;42.694;23.286;2022-11-20T00:46:49;94315.84;;;18.34;49.60
69524;BME280;56723;42.694;23.286;2022-11-20T00:49:16;94309.59;;;18.36;49.56
69524;BME280;56723;42.694;23.286;2022-11-20T00:51:43;94289.16;;;18.38;48.03
69524;BME280;56723;42.694;23.286;2022-11-20T00:54:10;94302.59;;;18.53;47.90
69524;BME280;56723;42.694;23.286;2022-11-20T00:56:37;94303.97;;;18.44;49.11
69524;BME280;56723;42.694;23.286;2022-11-20T00:59:03;94296.69;;;18.34;49.42
69524;BME280;56723;42.694;23.286;2022-11-20T01:01:30;94273.22;;;18.27;50.17
69524;BME280;56723;42.694;23.286;2022-11-20T01:03:59;94292.25;;;18.23;50.35
69524;BME280;56723;42.694;23.286;2022-11-20T01:06:29;94321.44;;;18.26;49.90
69524;BME280;56723;42.694;23.286;2022-11-20T01:08:58;94274.25;;;18.26;49.77
69524;BME280;56723;42.694;23.286;2022-11-20T01:11:26;94301.03;;;18.28;50.48
69524;BME280;56723;42.694;23.286;2022-11-20T01:13:54;94273.31;;;18.21;51.42
69524;BME280;56723;42.694;23.286;2022-11-20T01:16:36;94281.56;;;18.13;51.69
69524;BME280;56723;42.694;23.286;2022-11-20T01:19:07;94299.69;;;18.14;51.43
69524;BME280;56723;42.694;23.286;2022-11-20T01:21:38;94282.81;;;18.10;51.55
69524;BME280;56723;42.694;23.286;2022-11-20T01:24:07;94293.75;;;18.07;51.44
69524;BME280;56723;42.694;23.286;2022-11-20T01:26:36;94277.56;;;18.10;51.08
69524;BME280;56723;42.694;23.286;2022-11-20T01:29:04;94293.72;;;18.19;50.51
69524;BME280;56723;42.694;23.286;2022-11-20T01:31:33;94292.03;;;18.13;50.90
69524;BME280;56723;42.694;23.286;2022-11-20T01:34:20;94274.94;;;18.10;51.52
69524;BME280;56723;42.694;23.286;2022-11-20T01:36:49;94277.56;;;18.10;50.47
69524;BME280;56723;42.694;23.286;2022-11-20T01:39:21;94266.28;;;18.10;50.54
69524;BME280;56723;42.694;23.286;2022-11-20T01:41:50;94273.91;;;18.11;49.92
69524;BME280;56723;42.694;23.286;2022-11-20T01:44:55;94282.13;;;18.15;49.85
69524;BME280;56723;42.694;23.286;2022-11-20T01:47:30;94261.72;;;18.17;50.08
69524;BME280;56723;42.694;23.286;2022-11-20T01:50:22;94275.06;;;18.15;50.12
69524;BME280;56723;42.694;23.286;2022-11-20T01:53:00;94276.09;;;18.14;49.71
69524;BME280;56723;42.694;23.286;2022-11-20T01:55:32;94262.19;;;18.14;49.74
69524;BME280;56723;42.694;23.286;2022-11-20T01:58:02;94286.44;;;18.09;50.19
69524;BME280;56723;42.694;23.286;2022-11-20T02:00:30;94263.91;;;17.96;50.98
69524;BME280;56723;42.694;23.286;2022-11-20T02:03:09;94289.31;;;17.96;51.37
69524;BME280;56723;42.694;23.286;2022-11-20T02:05:41;94268.56;;;17.94;51.62
69524;BME280;56723;42.694;23.286;2022-11-20T02:08:11;94275.75;;;17.87;51.96
69524;BME280;56723;42.694;23.286;2022-11-20T02:10:39;94268.31;;;17.84;51.57
69524;BME280;56723;42.694;23.286;2022-11-20T02:13:06;94264.09;;;17.83;51.64
69524;BME280;56723;42.694;23.286;2022-11-20T02:15:52;94294.22;;;17.81;52.00
69524;BME280;56723;42.694;23.286;2022-11-20T02:18:20;94296.59;;;17.82;51.61
69524;BME280;56723;42.694;23.286;2022-11-20T02:20:49;94277.69;;;17.80;51.73
69524;BME280;56723;42.694;23.286;2022-11-20T02:23:23;94289.44;;;17.78;52.30
69524;BME280;56723;42.694;23.286;2022-11-20T02:25:52;94280.53;;;17.79;51.26
69524;BME280;56723;42.694;23.286;2022-11-20T02:28:21;94283.94;;;17.91;50.49
69524;BME280;56723;42.694;23.286;2022-11-20T02:30:48;94280.97;;;17.87;51.38
69524;BME280;56723;42.694;23.286;2022-11-20T02:33:15;94278.50;;;17.81;52.02
69524;BME280;56723;42.694;23.286;2022-11-20T02:35:44;94268.47;;;17.78;52.08
69524;BME280;56723;42.694;23.286;2022-11-20T02:38:12;94293.06;;;17.77;51.72
69524;BME280;56723;42.694;23.286;2022-11-20T02:40:40;94295.47;;;17.78;52.14
69524;BME280;56723;42.694;23.286;2022-11-20T02:43:07;94301.03;;;17.82;51.27
69524;BME280;56723;42.694;23.286;2022-11-20T02:45:34;94288.63;;;17.89;51.57
69524;BME280;56723;42.694;23.286;2022-11-20T02:48:01;94292.13;;;17.83;52.33
69524;BME280;56723;42.694;23.286;2022-11-20T02:50:28;94289.75;;;17.70;53.56
69524;BME280;56723;42.694;23.286;2022-11-20T02:52:54;94292.25;;;17.64;54.44
69524;BME280;56723;42.694;23.286;2022-11-20T02:55:21;94300.53;;;17.61;55.02
69524;BME280;56723;42.694;23.286;2022-11-20T02:57:48;94296.41;;;17.54;55.07
69524;BME280;56723;42.694;23.286;2022-11-20T03:00:15;94319.41;;;17.52;56.19
69524;BME280;56723;42.694;23.286;2022-11-20T03:02:42;94309.59;;;17.47;56.25
69524;BME280;56723;42.694;23.286;2022-11-20T03:05:09;94314.16;;;17.40;57.24
69524;BME280;56723;42.694;23.286;2022-11-20T03:07:36;94303.41;;;17.30;57.39
69524;BME280;56723;42.694;23.286;2022-11-20T03:10:04;94334.84;;;17.30;58.19
69524;BME280;56723;42.694;23.286;2022-11-20T03:12:31;94336.28;;;17.26;58.68
69524;BME280;56723;42.694;23.286;2022-11-20T03:14:58;94322.06;;;17.22;59.34
69524;BME280;56723;42.694;23.286;2022-11-20T03:17:25;94326.16;;;17.18;59.30
69524;BME280;56723;42.694;23.286;2022-11-20T03:19:52;94328.63;;;17.13;59.17
69524;BME280;56723;42.694;23.286;2022-11-20T03:22:18;94337.06;;;17.15;59.36
69524;BME280;56723;42.694;23.286;2022-11-20T03:24:45;94324.31;;;17.07;60.29
69524;BME280;56723;42.694;23.286;2022-11-20T03:27:12;94332.81;;;17.02;59.91
69524;BME280;56723;42.694;23.286;2022-11-20T03:29:40;94339.28;;;17.00;59.84
69524;BME280;56723;42.694;23.286;2022-11-20T03:32:06;94343.31;;;17.14;57.64
69524;BME280;56723;42.694;23.286;2022-11-20T03:34:33;94334.38;;;17.21;57.75
69524;BME280;56723;42.694;23.286;2022-11-20T03:37:00;94335.75;;;17.24;57.52
69524;BME280;56723;42.694;23.286;2022-11-20T03:39:27;94359.53;;;17.22;57.84
69524;BME280;56723;42.694;23.286;2022-11-20T03:41:54;94374.44;;;17.22;58.22
69524;BME280;56723;42.694;23.286;2022-11-20T03:44:21;94359.97;;;17.19;58.37
69524;BME280;56723;42.694;23.286;2022-11-20T03:46:48;94368.13;;;17.11;58.78
69524;BME280;56723;42.694;23.286;2022-11-20T03:49:15;94369.81;;;17.06;58.67
69524;BME280;56723;42.694;23.286;2022-11-20T03:51:42;94350.00;;;17.10;58.52
69524;BME280;56723;42.694;23.286;2022-11-20T03:54:09;94374.16;;;17.12;58.44
69524;BME280;56723;42.694;23.286;2022-11-20T03:56:37;94363.25;;;17.15;57.97
69524;BME280;56723;42.694;23.286;2022-11-20T03:59:05;94376.69;;;17.18;56.57
69524;BME280;56723;42.694;23.286;2022-11-20T04:01:35;94384.47;;;17.25;55.86
69524;BME280;56723;42.694;23.286;2022-11-20T04:04:02;94375.06;;;17.36;55.23
69524;BME280;56723;42.694;23.286;2022-11-20T04:06:34;94343.59;;;17.24;56.21
69524;BME280;56723;42.694;23.286;2022-11-20T04:09:01;94371.72;;;17.28;56.63
69524;BME280;56723;42.694;23.286;2022-11-20T04:11:29;94356.69;;;17.24;57.17
69524;BME280;56723;42.694;23.286;2022-11-20T04:14:02;94341.19;;;17.22;57.04
69524;BME280;56723;42.694;23.286;2022-11-20T04:16:30;94361.28;;;17.10;57.56
69524;BME280;56723;42.694;23.286;2022-11-20T04:18:59;94362.53;;;17.08;57.05
69524;BME280;56723;42.694;23.286;2022-11-20T04:21:27;94364.13;;;17.09;56.88
69524;BME280;56723;42.694;23.286;2022-11-20T04:23:55;94343.47;;;17.19;55.22
69524;BME280;56723;42.694;23.286;2022-11-20T04:26:25;94351.53;;;17.17;55.52
69524;BME280;56723;42.694;23.286;2022-11-20T06:33:02;94364.59;;;16.08;65.25
69524;BME280;56723;42.694;23.286;2022-11-20T06:35:29;94359.75;;;16.11;65.04
69524;BME280;56723;42.694;23.286;2022-11-20T06:37:56;94370.13;;;16.18;65.35
69524;BME280;56723;42.694;23.286;2022-11-20T06:40:23;94373.91;;;16.22;66.88
69524;BME280;56723;42.694;23.286;2022-11-20T06:42:50;94380.09;;;16.27;66.42
69524;BME280;56723;42.694;23.286;2022-11-20T06:45:17;94395.69;;;16.34;65.30
69524;BME280;56723;42.694;23.286;2022-11-20T06:47:44;94381.41;;;16.37;64.56
69524;BME280;56723;42.694;23.286;2022-11-20T06:50:10;94383.31;;;16.48;63.86
69524;BME280;56723;42.694;23.286;2022-11-20T06:52:37;94387.22;;;16.57;64.45
69524;BME280;56723;42.694;23.286;2022-11-20T06:55:09;94389.03;;;16.63;66.16
69524;BME280;56723;42.694;23.286;2022-11-20T06:57:35;94367.00;;;16.71;64.91
69524;BME280;56723;42.694;23.286;2022-11-20T07:00:03;94382.84;;;16.76;62.74
69524;BME280;56723;42.694;23.286;2022-11-20T07:02:30;94383.78;;;16.81;61.47
69524;BME280;56723;42.694;23.286;2022-11-20T07:04:56;94405.88;;;16.85;61.15
69524;BME280;56723;42.694;23.286;2022-11-20T07:07:23;94385.19;;;16.84;59.85
69524;BME280;56723;42.694;23.286;2022-11-20T07:09:50;94385.66;;;16.92;59.35
69524;BME280;56723;42.694;23.286;2022-11-20T07:12:17;94395.25;;;16.99;57.74
69524;BME280;56723;42.694;23.286;2022-11-20T07:14:44;94396.25;;;17.16;57.26
69524;BME280;56723;42.694;23.286;2022-11-20T07:17:11;94399.03;;;17.21;58.02
69524;BME280;56723;42.694;23.286;2022-11-20T07:19:38;94399.03;;;17.03;59.39
69524;BME280;56723;42.694;23.286;2022-11-20T07:22:05;94408.84;;;17.07;60.18
69524;BME280;56723;42.694;23.286;2022-11-20T07:24:32;94391.19;;;17.03;60.26
69524;BME280;56723;42.694;23.286;2022-11-20T07:26:59;94409.94;;;17.00;60.58
69524;BME280;56723;42.694;23.286;2022-11-20T07:29:26;94424.78;;;16.87;59.87
69524;BME280;56723;42.694;23.286;2022-11-20T07:31:53;94404.72;;;17.00;58.85
69524;BME280;56723;42.694;23.286;2022-11-20T07:34:22;94413.31;;;17.07;58.59
69524;BME280;56723;42.694;23.286;2022-11-20T07:36:49;94399.16;;;17.08;59.38
69524;BME280;56723;42.694;23.286;2022-11-20T07:39:15;94398.38;;;17.07;58.67
69524;BME280;56723;42.694;23.286;2022-11-20T07:41:42;94407.03;;;17.08;58.17
69524;BME280;56723;42.694;23.286;2022-11-20T07:44:09;94422.16;;;17.06;58.12
69524;BME280;56723;42.694;23.286;2022-11-20T07:46:36;94416.94;;;17.06;58.88
69524;BME280;56723;42.694;23.286;2022-11-20T07:49:02;94389.16;;;17.05;59.51
69524;BME280;56723;42.694;23.286;2022-11-20T07:51:29;94399.63;;;17.05;59.55
69524;BME280;56723;42.694;23.286;2022-11-20T07:53:56;94388.78;;;17.01;59.63
69524;BME280;56723;42.694;23.286;2022-11-20T07:56:24;94402.91;;;17.00;59.46
69524;BME280;56723;42.694;23.286;2022-11-20T07:58:50;94406.47;;;17.06;59.85
69524;BME280;56723;42.694;23.286;2022-11-20T08:01:17;94406.47;;;17.06;60.02
69524;BME280;56723;42.694;23.286;2022-11-20T08:03:44;94419.31;;;17.07;59.10
69524;BME280;56723;42.694;23.286;2022-11-20T08:06:11;94421.28;;;17.12;59.61
69524;BME280;56723;42.694;23.286;2022-11-20T08:08:38;94414.00;;;17.14;60.01
69524;BME280;56723;42.694;23.286;2022-11-20T08:11:08;94405.94;;;17.15;59.31
69524;BME280;56723;42.694;23.286;2022-11-20T08:13:54;94404.13;;;17.16;58.61
69524;BME280;56723;42.694;23.286;2022-11-20T08:16:44;94419.53;;;17.24;58.13
69524;BME280;56723;42.694;23.286;2022-11-20T08:19:15;94416.91;;;17.24;58.30
69524;BME280;56723;42.694;23.286;2022-11-20T08:21:43;94407.25;;;17.24;57.59
69524;BME280;56723;42.694;23.286;2022-11-20T08:24:10;94410.41;;;17.26;58.11
69524;BME280;56723;42.694;23.286;2022-11-20T08:26:38;94415.44;;;17.28;56.77
69524;BME280;56723;42.694;23.286;2022-11-20T08:29:06;94412.59;;;17.29;56.26
69524;BME280;56723;42.694;23.286;2022-11-20T08:31:33;94414.69;;;17.39;57.67
69524;BME280;56723;42.694;23.286;2022-11-20T08:34:00;94414.47;;;17.41;57.86
69524;BME280;56723;42.694;23.286;2022-11-20T08:36:33;94418.81;;;17.47;58.28
69524;BME280;56723;42.694;23.286;2022-11-20T08:39:02;94432.28;;;17.50;58.27
69524;BME280;56723;42.694;23.286;2022-11-20T08:41:29;94412.91;;;17.51;56.20
69524;BME280;56723;42.694;23.286;2022-11-20T08:44:01;94427.44;;;17.36;59.19
69524;BME280;56723;42.694;23.286;2022-11-20T08:46:33;94461.06;;;17.20;61.79
69524;BME280;56723;42.694;23.286;2022-11-20T08:49:00;94470.06;;;16.70;68.18
69524;BME280;56723;42.694;23.286;2022-11-20T08:51:27;94443.41;;;16.05;75.97
69524;BME280;56723;42.694;23.286;2022-11-20T08:53:54;94435.50;;;15.48;78.81
69524;BME280;56723;42.694;23.286;2022-11-20T08:56:21;94430.84;;;15.19;83.41
69524;BME280;56723;42.694;23.286;2022-11-20T08:58:50;94426.91;;;14.97;85.86
69524;BME280;56723;42.694;23.286;2022-11-20T09:01:38;94420.50;;;14.86;88.13
69524;BME280;56723;42.694;23.286;2022-11-20T09:04:05;94443.97;;;14.93;89.54
69524;BME280;56723;42.694;23.286;2022-11-20T09:06:32;94450.19;;;14.92;89.71
69524;BME280;56723;42.694;23.286;2022-11-20T09:08:59;94456.00;;;14.94;89.27
69524;BME280;56723;42.694;23.286;2022-11-20T09:11:32;94445.03;;;14.78;91.04
69524;BME280;56723;42.694;23.286;2022-11-20T09:13:59;94448.84;;;14.69;91.37
69524;BME280;56723;42.694;23.286;2022-11-20T09:16:26;94456.66;;;14.69;93.47
69524;BME280;56723;42.694;23.286;2022-11-20T09:18:54;94473.50;;;14.67;95.68
69524;BME280;56723;42.694;23.286;2022-11-20T09:21:46;94459.50;;;14.48;94.38
69524;BME280;56723;42.694;23.286;2022-11-20T09:24:13;94454.72;;;14.45;94.99
69524;BME280;56723;42.694;23.286;2022-11-20T09:26:40;94439.88;;;14.26;93.36
69524;BME280;56723;42.694;23.286;2022-11-20T09:29:07;94465.72;;;14.20;92.38
69524;BME280;56723;42.694;23.286;2022-11-20T09:31:34;94433.03;;;14.11;89.31
69524;BME280;56723;42.694;23.286;2022-11-20T09:34:00;94437.25;;;14.06;94.05
69524;BME280;56723;42.694;23.286;2022-11-20T09:36:28;94424.03;;;14.01;93.52
69524;BME280;56723;42.694;23.286;2022-11-20T09:38:54;94418.03;;;14.00;95.14
69524;BME280;56723;42.694;23.286;2022-11-20T09:41:59;94400.38;;;14.02;99.22
69524;BME280;56723;42.694;23.286;2022-11-20T09:55:19;94379.63;;;14.80;93.90
69524;BME280;56723;42.694;23.286;2022-11-20T09:57:50;94386.72;;;15.04;97.27
69524;BME280;56723;42.694;23.286;2022-11-20T10:00:18;94396.16;;;15.43;97.31
69524;BME280;56723;42.694;23.286;2022-11-20T10:03:14;94383.47;;;15.85;95.69
69524;BME280;56723;42.694;23.286;2022-11-20T10:08:36;94394.50;;;16.55;89.86
69524;BME280;56723;42.694;23.286;2022-11-20T10:13:42;94373.94;;;17.13;81.99
69524;BME280;56723;42.694;23.286;2022-11-20T10:30:09;94404.00;;;17.41;75.75
69524;BME280;56723;42.694;23.286;2022-11-20T10:32:40;94410.66;;;17.25;77.61
69524;BME280;56723;42.694;23.286;2022-11-20T10:35:34;94405.78;;;17.10;81.58
69524;BME280;56723;42.694;23.286;2022-11-20T10:38:07;94400.13;;;16.95;80.37
69524;BME280;56723;42.694;23.286;2022-11-20T10:40:49;94408.41;;;16.74;79.89
69524;BME280;56723;42.694;23.286;2022-11-20T10:43:23;94402.72;;;16.58;79.45
69524;BME280;56723;42.694;23.286;2022-11-20T10:45:58;94404.88;;;16.43;80.39
69524;BME280;56723;42.694;23.286;2022-11-20T10:48:28;94392.13;;;16.10;81.58
69524;BME280;56723;42.694;23.286;2022-11-20T10:56:50;94403.78;;;15.45;88.79
69524;BME280;56723;42.694;23.286;2022-11-20T10:59:38;94403.97;;;15.12;91.89
69524;BME280;56723;42.694;23.286;2022-11-20T11:02:19;94422.56;;;14.77;86.02
69524;BME280;56723;42.694;23.286;2022-11-20T11:04:49;94458.09;;;14.32;85.54
69524;BME280;56723;42.694;23.286;2022-11-20T11:07:27;94502.66;;;13.57;91.05
69524;BME280;56723;42.694;23.286;2022-11-20T11:09:57;94495.00;;;12.60;93.62
69524;BME280;56723;42.694;23.286;2022-11-20T11:12:27;94457.41;;;12.06;99.64
69524;BME280;56723;42.694;23.286;2022-11-20T11:14:56;94476.38;;;12.07;96.38
69524;BME280;56723;42.694;23.286;2022-11-20T11:17:34;94452.59;;;12.31;88.89
69524;BME280;56723;42.694;23.286;2022-11-20T11:22:49;94438.25;;;12.07;95.21
69524;BME280;56723;42.694;23.286;2022-11-20T11:27:55;94412.56;;;11.91;99.07
69524;BME280;56723;42.694;23.286;2022-11-20T11:30:24;94405.72;;;11.84;100.00
69524;BME280;56723;42.694;23.286;2022-11-20T11:33:27;94417.91;;;11.83;100.00
69524;BME280;56723;42.694;23.286;2022-11-20T11:36:00;94406.63;;;11.97;99.45
69524;BME280;56723;42.694;23.286;2022-11-20T11:40:58;94406.72;;;12.10;95.37
69524;BME280;56723;42.694;23.286;2022-11-20T11:43:29;94417.72;;;12.12;97.34
69524;BME280;56723;42.694;23.286;2022-11-20T11:46:25;94426.13;;;12.14;96.49
69524;BME280;56723;42.694;23.286;2022-11-20T11:49:18;94412.69;;;12.39;91.86
69524;BME280;56723;42.694;23.286;2022-11-20T11:54:27;94409.84;;;12.68;85.98
69524;BME280;56723;42.694;23.286;2022-11-20T11:56:55;94402.34;;;12.87;85.66
69524;BME280;56723;42.694;23.286;2022-11-20T11:59:34;94399.13;;;12.84;84.39
69524;BME280;56723;42.694;23.286;2022-11-20T12:02:22;94399.50;;;12.81;82.71
69524;BME280;56723;42.694;23.286;2022-11-20T12:05:23;94413.56;;;12.94;83.21
69524;BME280;56723;42.694;23.286;2022-11-20T12:08:01;94402.19;;;12.95;83.69
69524;BME280;56723;42.694;23.286;2022-11-20T12:10:44;94415.66;;;13.11;79.62
69524;BME280;56723;42.694;23.286;2022-11-20T12:15:53;94412.94;;;13.33;78.73
69524;BME280;56723;42.694;23.286;2022-11-20T12:18:21;94401.72;;;13.32;78.06
69524;BME280;56723;42.694;23.286;2022-11-20T12:20:58;94396.91;;;13.29;77.43
69524;BME280;56723;42.694;23.286;2022-11-20T12:23:38;94402.53;;;13.39;76.97
69524;BME280;56723;42.694;23.286;2022-11-20T12:43:32;94352.97;;;12.93;80.85
69524;BME280;56723;42.694;23.286;2022-11-20T12:46:41;94352.38;;;12.98;79.82
69524;BME280;56723;42.694;23.286;2022-11-20T12:52:51;94351.41;;;13.05;82.67
69524;BME280;56723;42.694;23.286;2022-11-20T12:55:28;94371.41;;;13.05;88.25
69524;BME280;56723;42.694;23.286;2022-11-20T13:04:19;94365.66;;;12.68;97.02
69524;BME280;56723;42.694;23.286;2022-11-20T13:06:53;94345.81;;;12.54;99.86
69524;BME280;56723;42.694;23.286;2022-11-20T13:09:22;94350.97;;;12.41;100.00
69524;BME280;56723;42.694;23.286;2022-11-20T13:12:11;94351.50;;;12.30;100.00
69524;BME280;56723;42.694;23.286;2022-11-20T13:14:50;94358.47;;;12.23;100.00
69524;BME280;56723;42.694;23.286;2022-11-20T13:20:16;94384.44;;;12.23;98.47
69524;BME280;56723;42.694;23.286;2022-11-20T13:22:49;94383.44;;;12.24;99.91
69524;BME280;56723;42.694;23.286;2022-11-20T13:25:33;94381.03;;;12.22;100.00
69524;BME280;56723;42.694;23.286;2022-11-20T13:28:04;94368.84;;;12.23;100.00
69524;BME280;56723;42.694;23.286;2022-11-20T13:30:31;94381.03;;;12.22;100.00
69524;BME280;56723;42.694;23.286;2022-11-20T13:33:06;94357.22;;;12.19;100.00
69524;BME280;56723;42.694;23.286;2022-11-20T13:35:41;94357.66;;;12.22;96.71
69524;BME280;56723;42.694;23.286;2022-11-20T13:38:13;94356.06;;;12.28;95.92
69524;BME280;56723;42.694;23.286;2022-11-20T13:46:00;94353.97;;;12.44;96.51
69524;BME280;56723;42.694;23.286;2022-11-20T13:48:34;94370.97;;;12.47;95.85
69524;BME280;56723;42.694;23.286;2022-11-20T13:51:15;94381.97;;;12.49;95.27
69524;BME280;56723;42.694;23.286;2022-11-20T13:59:58;94399.81;;;12.59;95.56
69524;BME280;56723;42.694;23.286;2022-11-20T14:02:36;94399.78;;;12.52;96.80
69524;BME280;56723;42.694;23.286;2022-11-20T14:05:04;94400.59;;;12.53;98.24
69524;BME280;56723;42.694;23.286;2022-11-20T14:07:35;94403.75;;;12.48;98.38
69524;BME280;56723;42.694;23.286;2022-11-20T14:10:06;94403.78;;;12.55;98.08
69524;BME280;56723;42.694;23.286;2022-11-20T14:12:33;94401.38;;;12.53;97.90
69524;BME280;56723;42.694;23.286;2022-11-20T14:15:00;94402.38;;;12.52;98.59
69524;BME280;56723;42.694;23.286;2022-11-20T14:17:35;94403.00;;;12.54;97.67
69524;BME280;56723;42.694;23.286;2022-11-20T14:20:06;94391.78;;;12.54;98.32
69524;BME280;56723;42.694;23.286;2022-11-20T14:22:35;94395.44;;;12.59;97.68
69524;BME280;56723;42.694;23.286;2022-11-20T14:27:41;94391.44;;;12.63;100.00
69524;BME280;56723;42.694;23.286;2022-11-20T14:30:16;94383.06;;;12.61;100.00
69524;BME280;56723;42.694;23.286;2022-11-20T14:32:45;94402.22;;;12.60;94.81
69524;BME280;56723;42.694;23.286;2022-11-20T14:35:40;94417.22;;;12.58;94.36
69524;BME280;56723;42.694;23.286;2022-11-20T14:38:04;94416.97;;;12.53;89.72
69524;BME280;56723;42.694;23.286;2022-11-20T14:40:34;94404.38;;;12.50;91.70
69524;BME280;56723;42.694;23.286;2022-11-20T14:43:24;94401.16;;;12.48;91.07
69524;BME280;56723;42.694;23.286;2022-11-20T14:46:04;94400.34;;;12.41;90.58
69524;BME280;56723;42.694;23.286;2022-11-20T14:48:49;94398.88;;;12.32;90.68
